createdAt,value
2023-03-10T00:00:22.937Z,71.80
2023-03-10T00:02:50.189Z,72.30
2023-03-10T00:05:19.614Z,72.90
2023-03-10T00:07:47.568Z,73.10
2023-03-10T00:10:15.362Z,73.00
2023-03-10T00:12:42.447Z,73.60
2023-03-10T00:15:09.715Z,73.20
2023-03-10T00:17:36.856Z,73.40
2023-03-10T00:20:07.802Z,73.80
2023-03-10T00:22:35.216Z,74.10
2023-03-10T00:25:01.822Z,73.80
2023-03-10T00:27:28.417Z,74.50
2023-03-10T00:29:54.920Z,72.90
2023-03-10T00:32:21.510Z,72.60
2023-03-10T00:34:48.067Z,72.80
2023-03-10T00:37:14.579Z,73.00
2023-03-10T00:39:41.984Z,72.90
2023-03-10T00:42:09.519Z,73.10
2023-03-10T00:44:36.148Z,73.80
2023-03-10T00:47:02.886Z,74.00
2023-03-10T00:49:29.418Z,74.20
2023-03-10T00:51:55.950Z,74.00
2023-03-10T00:54:22.639Z,74.20
2023-03-10T00:56:49.219Z,74.90
2023-03-10T00:59:15.764Z,75.30
2023-03-10T01:01:42.752Z,75.40
2023-03-10T01:04:13.463Z,75.80
2023-03-10T01:06:40.666Z,78.30
2023-03-10T01:09:07.352Z,80.20
2023-03-10T01:11:34.748Z,81.00
2023-03-10T01:14:04.645Z,81.60
2023-03-10T01:16:31.595Z,81.70
2023-03-10T01:18:58.942Z,82.00
2023-03-10T01:21:31.117Z,82.30
2023-03-10T01:23:58.689Z,82.70
2023-03-10T01:26:25.330Z,82.90
2023-03-10T01:28:51.903Z,83.20
2023-03-10T01:31:19.149Z,83.60
2023-03-10T01:33:46.099Z,83.90
2023-03-10T01:36:18.617Z,84.30
2023-03-10T01:38:45.283Z,84.60
2023-03-10T01:41:12.284Z,84.90
2023-03-10T01:43:40.724Z,85.50
2023-03-10T01:46:31.673Z,86.00
2023-03-10T01:49:03.040Z,86.50
2023-03-10T01:51:34.440Z,86.80
2023-03-10T01:54:05.503Z,87.00
2023-03-10T01:56:31.995Z,87.10
2023-03-10T01:58:58.656Z,87.30
2023-03-10T02:01:25.727Z,87.00
2023-03-10T02:04:15.143Z,87.10
2023-03-10T02:06:43.951Z,87.20
2023-03-10T02:09:10.945Z,87.40
2023-03-10T02:11:38.106Z,88.80
2023-03-10T02:14:06.224Z,91.00
2023-03-10T02:16:34.318Z,91.90
2023-03-10T02:19:01.532Z,92.70
2023-03-10T02:21:51.858Z,93.40
2023-03-10T02:24:43.177Z,93.50
2023-03-10T02:27:16.874Z,94.50
2023-03-10T02:29:59.144Z,95.10
2023-03-10T02:32:29.207Z,95.20
2023-03-10T02:34:56.078Z,95.40
2023-03-10T02:37:30.394Z,95.30
2023-03-10T02:39:57.973Z,95.00
2023-03-10T02:42:29.773Z,95.00
2023-03-10T02:44:56.950Z,95.20
2023-03-10T02:47:23.607Z,95.40
2023-03-10T02:49:50.190Z,95.80
2023-03-10T02:52:26.700Z,96.00
2023-03-10T02:54:53.312Z,96.30
2023-03-10T02:57:19.901Z,96.30
2023-03-10T02:59:46.452Z,96.70
2023-03-10T03:02:12.986Z,97.20
2023-03-10T03:04:39.571Z,96.40
2023-03-10T03:07:06.151Z,96.30
2023-03-10T03:09:32.848Z,96.40
2023-03-10T03:12:00.006Z,96.40
2023-03-10T03:14:26.600Z,96.50
2023-03-10T03:16:53.194Z,95.90
2023-03-10T03:19:19.928Z,96.30
2023-03-10T03:21:49.783Z,96.40
2023-03-10T03:24:23.099Z,96.30
2023-03-10T03:26:49.632Z,96.50
2023-03-10T03:29:17.403Z,96.50
2023-03-10T03:31:44.211Z,96.60
2023-03-10T03:34:11.325Z,95.70
2023-03-10T03:36:38.101Z,95.70
2023-03-10T03:39:06.566Z,95.70
2023-03-10T03:41:33.858Z,95.50
2023-03-10T03:44:00.836Z,95.50
2023-03-10T03:46:27.634Z,95.30
2023-03-10T03:48:54.182Z,94.80
2023-03-10T03:51:20.692Z,94.60
2023-03-10T03:53:47.249Z,94.50
2023-03-10T03:56:13.875Z,94.40
2023-03-10T03:58:40.417Z,94.00
2023-03-10T04:01:06.974Z,94.00
2023-03-10T04:03:33.624Z,93.90
2023-03-10T04:06:00.342Z,93.70
2023-03-10T04:08:27.066Z,93.60
2023-03-10T04:10:55.060Z,93.60
2023-03-10T04:13:21.845Z,93.40
2023-03-10T04:15:48.413Z,93.30
2023-03-10T04:18:15.756Z,93.40
2023-03-10T04:20:42.334Z,93.20
2023-03-10T04:23:08.890Z,92.90
2023-03-10T04:25:36.214Z,92.90
2023-03-10T04:28:02.737Z,92.80
2023-03-10T04:30:29.667Z,92.80
2023-03-10T04:33:00.573Z,92.70
2023-03-10T04:35:27.959Z,92.70
2023-03-10T04:37:54.773Z,92.70
2023-03-10T04:40:21.701Z,92.60
2023-03-10T04:42:48.341Z,92.60
2023-03-10T04:45:15.100Z,92.60
2023-03-10T04:47:44.783Z,91.90
2023-03-10T04:50:12.448Z,91.60
2023-03-10T04:52:39.156Z,91.60
2023-03-10T04:55:06.280Z,91.60
2023-03-10T04:57:32.848Z,91.40
2023-03-10T05:00:02.286Z,91.50
2023-03-10T05:02:29.408Z,91.40
2023-03-10T05:04:56.734Z,91.20
2023-03-10T05:07:23.564Z,91.10
2023-03-10T05:09:50.115Z,90.90
2023-03-10T05:12:16.694Z,90.90
2023-03-10T05:14:43.232Z,90.80
2023-03-10T05:17:10.038Z,90.90
2023-03-10T05:19:36.614Z,90.90
2023-03-10T05:22:04.362Z,90.90
2023-03-10T05:24:31.360Z,91.20
2023-03-10T05:26:58.338Z,91.20
2023-03-10T05:29:24.924Z,91.00
2023-03-10T05:31:51.495Z,91.20
2023-03-10T05:34:18.130Z,91.30
2023-03-10T05:36:44.687Z,91.20
2023-03-10T05:39:11.401Z,91.40
2023-03-10T05:41:38.937Z,91.30
2023-03-10T05:44:06.064Z,91.20
2023-03-10T05:46:32.617Z,91.10
2023-03-10T05:48:59.276Z,91.00
2023-03-10T05:51:25.804Z,91.10
2023-03-10T05:53:52.324Z,91.50
2023-03-10T05:56:19.743Z,91.60
2023-03-10T05:58:47.370Z,91.80
2023-03-10T06:01:14.453Z,92.00
2023-03-10T06:03:41.354Z,92.00
2023-03-10T06:06:08.186Z,92.40
2023-03-10T06:08:35.118Z,92.50
2023-03-10T06:11:01.754Z,92.60
2023-03-10T06:13:28.483Z,92.80
2023-03-10T06:15:59.701Z,93.00
2023-03-10T06:18:27.912Z,93.40
2023-03-10T06:20:55.290Z,93.70
2023-03-10T06:23:23.474Z,94.10
2023-03-10T06:26:06.652Z,94.30
2023-03-10T06:28:36.474Z,94.60
2023-03-10T06:31:06.363Z,94.90
2023-03-10T06:33:33.894Z,95.10
2023-03-10T06:36:00.845Z,95.50
2023-03-10T06:38:27.654Z,95.80
2023-03-10T06:40:54.334Z,96.50
2023-03-10T06:43:20.891Z,96.90
2023-03-10T06:45:49.189Z,97.20
2023-03-10T06:48:16.354Z,97.00
2023-03-10T06:50:49.761Z,97.30
2023-03-10T06:53:20.900Z,97.40
2023-03-10T06:55:57.668Z,97.50
2023-03-10T06:58:24.460Z,98.00
2023-03-10T07:00:51.018Z,97.70
2023-03-10T07:03:18.397Z,97.90
2023-03-10T07:05:44.958Z,98.20
2023-03-10T07:08:11.534Z,98.40
2023-03-10T07:10:38.075Z,98.20
2023-03-10T07:13:04.674Z,98.60
2023-03-10T07:15:31.207Z,98.50
2023-03-10T07:17:57.783Z,98.60
2023-03-10T07:20:24.926Z,98.70
2023-03-10T07:22:51.901Z,98.60
2023-03-10T07:25:18.825Z,98.90
2023-03-10T07:27:45.411Z,98.80
2023-03-10T07:30:12.509Z,99.00
2023-03-10T07:32:39.120Z,99.20
2023-03-10T07:35:06.315Z,99.10
2023-03-10T07:37:32.900Z,99.10
2023-03-10T07:39:59.418Z,99.30
2023-03-10T07:42:25.970Z,99.40
2023-03-10T07:44:52.609Z,99.50
2023-03-10T07:47:19.190Z,99.70
2023-03-10T07:49:46.807Z,99.90
2023-03-10T07:52:16.727Z,99.90
2023-03-10T07:54:44.343Z,99.70
2023-03-10T07:57:12.351Z,99.80
2023-03-10T07:59:39.201Z,99.20
2023-03-10T08:02:06.132Z,99.70
2023-03-10T08:04:32.793Z,99.90
2023-03-10T08:07:02.116Z,99.90
2023-03-10T08:09:32.511Z,99.90
2023-03-10T08:11:59.674Z,99.90
2023-03-10T08:14:29.438Z,99.90
2023-03-10T08:16:56.664Z,99.90
2023-03-10T08:19:27.571Z,99.90
2023-03-10T08:21:55.646Z,99.90
2023-03-10T08:24:22.279Z,99.90
2023-03-10T08:26:48.823Z,99.90
2023-03-10T08:29:15.586Z,99.90
2023-03-10T08:31:42.174Z,99.90
2023-03-10T08:34:08.772Z,99.70
2023-03-10T08:36:35.454Z,99.10
2023-03-10T08:39:02.457Z,98.30
2023-03-10T08:41:37.763Z,97.70
2023-03-10T08:44:05.703Z,98.10
2023-03-10T08:46:33.455Z,97.70
2023-03-10T08:49:00.675Z,98.40
2023-03-10T08:51:28.873Z,98.50
2023-03-10T08:53:55.586Z,98.30
2023-03-10T08:56:23.353Z,98.30
2023-03-10T08:58:50.502Z,98.20
2023-03-10T09:01:17.813Z,98.10
2023-03-10T09:03:45.795Z,97.30
2023-03-10T09:06:13.541Z,95.80
2023-03-10T09:08:41.159Z,94.90
2023-03-10T09:11:09.477Z,94.40
2023-03-10T09:13:35.972Z,93.90
2023-03-10T09:16:02.659Z,94.10
2023-03-10T09:18:29.331Z,94.80
2023-03-10T09:20:55.976Z,95.10
2023-03-10T09:23:22.535Z,95.40
2023-03-10T09:25:49.087Z,95.10
2023-03-10T09:28:18.510Z,95.30
2023-03-10T09:30:45.393Z,95.50
2023-03-10T09:33:17.732Z,95.30
2023-03-10T09:35:52.446Z,94.50
2023-03-10T09:38:25.687Z,94.90
2023-03-10T09:41:13.764Z,95.30
2023-03-10T09:43:50.284Z,95.90
2023-03-10T09:46:25.645Z,95.40
2023-03-10T09:49:01.305Z,95.40
2023-03-10T09:51:28.789Z,95.10
2023-03-10T09:54:24.139Z,94.90
2023-03-10T09:56:51.024Z,94.80
2023-03-10T09:59:25.229Z,94.80
2023-03-10T10:01:53.078Z,95.10
2023-03-10T10:04:29.534Z,95.10
2023-03-10T10:06:57.216Z,95.60
2023-03-10T10:09:32.710Z,95.70
2023-03-10T10:12:13.784Z,95.80
2023-03-10T10:14:48.139Z,96.00
2023-03-10T10:17:41.721Z,96.70
2023-03-10T10:20:22.860Z,97.40
2023-03-10T10:22:49.642Z,97.20
2023-03-10T10:25:20.462Z,97.70
2023-03-10T10:27:51.528Z,97.50
2023-03-10T10:30:44.505Z,96.60
2023-03-10T10:33:16.347Z,96.60
2023-03-10T10:36:01.784Z,96.90
2023-03-10T10:38:30.720Z,96.50
2023-03-10T10:41:05.074Z,96.20
2023-03-10T10:43:44.212Z,95.70
2023-03-10T10:46:13.179Z,95.00
2023-03-10T10:48:46.090Z,95.30
2023-03-10T10:51:35.712Z,95.50
2023-03-10T10:54:21.556Z,94.60
2023-03-10T10:56:53.625Z,93.60
2023-03-10T10:59:22.817Z,93.90
2023-03-10T11:01:53.870Z,93.90
2023-03-10T11:04:21.114Z,93.80
2023-03-10T11:06:48.181Z,93.00
2023-03-10T11:09:20.450Z,93.00
2023-03-10T11:12:00.797Z,93.60
2023-03-10T11:14:46.414Z,93.90
2023-03-10T11:17:28.413Z,93.80
2023-03-10T11:19:57.602Z,93.40
2023-03-10T11:22:32.842Z,93.00
2023-03-10T11:25:11.329Z,93.10
2023-03-10T11:27:51.841Z,92.80
2023-03-10T11:30:40.967Z,93.30
2023-03-10T11:34:01.499Z,93.50
2023-03-10T11:36:43.237Z,93.90
2023-03-10T11:39:24.979Z,93.60
2023-03-10T11:42:02.444Z,93.70
2023-03-10T11:44:38.881Z,93.70
2023-03-10T11:47:41.759Z,93.80
2023-03-10T11:50:49.156Z,93.80
2023-03-10T11:53:25.912Z,93.90
2023-03-10T11:55:53.837Z,94.40
2023-03-10T11:58:47.026Z,94.50
2023-03-10T12:01:23.037Z,94.80
2023-03-10T12:04:06.429Z,94.70
2023-03-10T12:06:41.954Z,95.20
2023-03-10T12:09:18.569Z,95.60
2023-03-10T12:11:46.063Z,95.40
2023-03-10T12:14:14.204Z,96.20
2023-03-10T12:16:41.911Z,96.30
2023-03-10T12:19:08.647Z,97.20
2023-03-10T12:21:35.958Z,97.90
2023-03-10T12:24:04.561Z,98.10
2023-03-10T12:26:40.767Z,98.10
2023-03-10T12:29:22.474Z,97.90
2023-03-10T12:31:51.515Z,98.10
2023-03-10T12:34:28.544Z,97.50
2023-03-10T12:37:05.527Z,97.00
2023-03-10T12:39:42.503Z,96.90
2023-03-10T12:42:30.164Z,97.50
2023-03-10T12:45:21.160Z,97.80
2023-03-10T12:48:01.737Z,98.20
2023-03-10T12:50:50.172Z,97.70
2023-03-10T12:53:34.222Z,97.30
2023-03-10T12:56:12.910Z,97.30
2023-03-10T12:58:44.967Z,97.30
2023-03-10T13:01:17.095Z,96.60
2023-03-10T13:03:50.868Z,96.40
2023-03-10T13:06:29.439Z,96.20
2023-03-10T13:08:59.124Z,96.40
2023-03-10T13:12:03.742Z,95.60
2023-03-10T13:14:42.118Z,95.10
2023-03-10T13:17:25.396Z,95.10
2023-03-10T13:20:05.641Z,94.80
2023-03-10T13:22:33.084Z,94.10
2023-03-10T13:25:02.856Z,94.40
2023-03-10T13:27:32.511Z,92.60
2023-03-10T13:30:12.970Z,92.90
2023-03-10T13:32:39.626Z,92.90
2023-03-10T13:35:24.784Z,93.10
2023-03-10T13:38:20.515Z,93.60
2023-03-10T13:40:49.725Z,94.20
2023-03-10T13:43:39.186Z,95.00
2023-03-10T13:46:27.614Z,95.30
2023-03-10T13:48:57.899Z,95.30
2023-03-10T13:51:31.783Z,95.20
2023-03-10T13:54:11.738Z,95.10
2023-03-10T13:56:40.641Z,95.00
2023-03-10T13:59:14.944Z,95.00
2023-03-10T14:01:50.975Z,95.40
2023-03-10T14:04:38.005Z,95.00
2023-03-10T14:07:14.615Z,95.40
2023-03-10T14:09:41.339Z,95.20
2023-03-10T14:12:09.013Z,95.10
2023-03-10T14:14:38.617Z,94.90
2023-03-10T14:17:07.909Z,95.60
2023-03-10T14:19:43.713Z,95.50
2023-03-10T14:22:35.582Z,95.60
2023-03-10T14:25:05.984Z,95.00
2023-03-10T14:27:35.858Z,95.00
2023-03-10T14:30:21.264Z,95.00
2023-03-10T14:32:48.260Z,93.80
2023-03-10T14:35:17.478Z,93.70
2023-03-10T14:37:44.073Z,94.10
2023-03-10T14:40:11.229Z,94.50
2023-03-10T14:42:40.241Z,95.20
2023-03-10T14:45:27.482Z,95.60
2023-03-10T14:47:56.666Z,96.70
2023-03-10T14:50:24.652Z,97.10
2023-03-10T14:52:52.462Z,95.90
2023-03-10T14:55:19.299Z,96.50
2023-03-10T14:57:47.849Z,95.90
2023-03-10T15:00:18.512Z,95.10
2023-03-10T15:02:46.136Z,94.00
2023-03-10T15:05:21.727Z,93.50
2023-03-10T15:07:48.795Z,92.80
2023-03-10T15:10:19.929Z,91.10
2023-03-10T15:12:47.229Z,90.90
2023-03-10T15:15:17.873Z,90.30
2023-03-10T15:17:44.958Z,90.30
2023-03-10T15:20:16.357Z,89.50
2023-03-10T15:22:44.573Z,88.50
2023-03-10T15:25:11.610Z,86.90
2023-03-10T15:27:38.335Z,86.90
2023-03-10T15:30:06.911Z,87.90
2023-03-10T15:32:33.518Z,88.30
2023-03-10T15:35:00.153Z,89.00
2023-03-10T15:37:26.755Z,89.50
2023-03-10T15:39:53.268Z,90.10
2023-03-10T15:42:19.777Z,89.40
2023-03-10T15:44:49.226Z,89.90
2023-03-10T15:47:15.745Z,90.00
2023-03-10T15:49:42.323Z,89.80
2023-03-10T15:52:08.996Z,88.90
2023-03-10T15:54:35.552Z,89.80
2023-03-10T15:57:02.146Z,90.40
2023-03-10T15:59:29.304Z,90.60
2023-03-10T16:01:56.122Z,90.80
2023-03-10T16:04:23.584Z,90.50
2023-03-10T16:06:50.159Z,90.60
2023-03-10T16:09:16.921Z,90.70
2023-03-10T16:11:43.494Z,91.20
2023-03-10T16:14:10.146Z,91.50
2023-03-10T16:16:36.776Z,91.70
2023-03-10T16:19:03.391Z,91.00
2023-03-10T16:21:30.029Z,91.20
2023-03-10T16:23:57.434Z,90.90
2023-03-10T16:26:24.492Z,91.10
2023-03-10T16:28:53.125Z,91.90
2023-03-10T16:31:24.288Z,93.20
2023-03-10T16:33:53.746Z,93.10
2023-03-10T16:36:23.633Z,93.10
2023-03-10T16:38:50.413Z,92.90
2023-03-10T16:41:17.481Z,92.80
2023-03-10T16:43:44.173Z,93.10
2023-03-10T16:46:15.675Z,92.90
2023-03-10T16:48:44.535Z,92.80
2023-03-10T16:51:32.860Z,92.80
2023-03-10T16:54:02.310Z,92.60
2023-03-10T16:56:31.776Z,92.60
2023-03-10T16:58:58.669Z,92.60
2023-03-10T17:01:25.376Z,92.80
2023-03-10T17:03:53.144Z,92.80
2023-03-10T17:06:23.236Z,92.90
2023-03-10T17:08:51.206Z,92.90
2023-03-10T17:11:24.527Z,93.10
2023-03-10T17:13:53.840Z,93.50
2023-03-10T17:16:23.352Z,93.70
2023-03-10T17:18:50.742Z,93.60
2023-03-10T17:21:22.612Z,93.30
2023-03-10T17:23:49.775Z,93.40
2023-03-10T17:26:17.825Z,93.40
2023-03-10T17:28:50.414Z,93.50
2023-03-10T17:31:26.106Z,93.40
2023-03-10T17:33:58.683Z,93.20
2023-03-10T17:36:25.368Z,93.20
2023-03-10T17:38:53.463Z,92.80
2023-03-10T17:41:20.404Z,92.40
2023-03-10T17:43:47.980Z,92.20
2023-03-10T17:46:16.733Z,92.20
2023-03-10T17:48:43.797Z,92.30
2023-03-10T17:51:13.906Z,92.10
2023-03-10T17:53:40.434Z,91.80
2023-03-10T17:56:07.784Z,91.30
2023-03-10T17:58:34.859Z,91.30
2023-03-10T18:01:15.783Z,90.40
2023-03-10T18:03:42.674Z,89.90
2023-03-10T18:06:14.501Z,88.50
2023-03-10T18:08:41.616Z,88.50
2023-03-10T18:11:08.486Z,86.20
2023-03-10T18:13:35.804Z,85.60
2023-03-10T18:16:02.477Z,85.00
2023-03-10T18:18:29.077Z,84.40
2023-03-10T18:20:55.651Z,84.30
2023-03-10T18:23:23.124Z,83.50
2023-03-10T18:25:50.742Z,84.30
2023-03-10T18:28:19.160Z,84.90
2023-03-10T18:30:49.944Z,88.00
2023-03-10T18:33:16.612Z,90.40
2023-03-10T18:35:44.949Z,91.40
2023-03-10T18:38:13.208Z,93.10
2023-03-10T18:40:40.343Z,94.10
2023-03-10T18:43:06.950Z,94.30
2023-03-10T18:45:33.541Z,94.70
2023-03-10T18:48:00.263Z,94.30
2023-03-10T18:50:26.945Z,94.20
2023-03-10T18:52:53.485Z,93.40
2023-03-10T18:55:20.020Z,93.00
2023-03-10T18:57:46.605Z,93.00
2023-03-10T19:00:15.283Z,92.70
2023-03-10T19:02:42.684Z,92.70
2023-03-10T19:05:16.362Z,93.00
2023-03-10T19:07:42.913Z,93.20
2023-03-10T19:10:13.795Z,93.20
2023-03-10T19:12:40.972Z,93.30
2023-03-10T19:15:09.133Z,93.30
2023-03-10T19:17:37.458Z,93.50
2023-03-10T19:20:07.267Z,93.30
2023-03-10T19:22:34.797Z,93.70
2023-03-10T19:25:03.303Z,93.80
2023-03-10T19:27:30.589Z,94.30
2023-03-10T19:29:57.633Z,94.90
2023-03-10T19:32:25.442Z,95.50
2023-03-10T19:34:52.117Z,96.10
2023-03-10T19:37:18.914Z,96.10
2023-03-10T19:39:45.453Z,96.10
2023-03-10T19:42:11.993Z,96.10
2023-03-10T19:44:39.320Z,96.40
2023-03-10T19:47:05.985Z,96.20
2023-03-10T19:49:35.388Z,96.10
2023-03-10T19:52:02.052Z,96.00
2023-03-10T19:54:28.664Z,95.70
2023-03-10T19:56:55.193Z,95.10
2023-03-10T19:59:21.773Z,95.20
2023-03-10T20:01:49.229Z,95.00
2023-03-10T20:04:16.054Z,94.60
2023-03-10T20:06:42.671Z,94.40
2023-03-10T20:09:10.663Z,94.40
2023-03-10T20:11:38.728Z,94.20
2023-03-10T20:14:05.856Z,94.20
2023-03-10T20:16:32.897Z,94.20
2023-03-10T20:18:59.784Z,94.10
2023-03-10T20:21:27.479Z,93.40
2023-03-10T20:23:55.935Z,93.50
2023-03-10T20:26:23.846Z,93.60
2023-03-10T20:28:52.083Z,93.60
2023-03-10T20:31:21.832Z,93.50
2023-03-10T20:33:48.841Z,93.40
2023-03-10T20:36:16.095Z,93.30
2023-03-10T20:38:44.078Z,93.30
2023-03-10T20:41:15.960Z,93.50
2023-03-10T20:43:43.568Z,93.20
2023-03-10T20:46:10.891Z,93.00
2023-03-10T20:48:37.549Z,93.30
2023-03-10T20:51:04.338Z,93.10
2023-03-10T20:53:33.287Z,93.00
2023-03-10T20:56:00.466Z,92.80
2023-03-10T20:58:27.614Z,93.00
2023-03-10T21:00:54.447Z,92.70
2023-03-10T21:03:23.897Z,92.60
2023-03-10T21:05:50.524Z,92.60
2023-03-10T21:08:17.056Z,93.10
2023-03-10T21:10:44.842Z,93.30
2023-03-10T21:13:11.962Z,93.10
2023-03-10T21:15:39.730Z,93.10
2023-03-10T21:18:06.666Z,93.10
2023-03-10T21:20:33.418Z,93.30
2023-03-10T21:23:00.333Z,93.40
2023-03-10T21:25:28.161Z,93.60
2023-03-10T21:27:58.609Z,93.40
2023-03-10T21:30:30.223Z,93.20
2023-03-10T21:32:57.840Z,93.30
2023-03-10T21:35:26.624Z,93.20
2023-03-10T21:37:55.294Z,93.10
2023-03-10T21:40:24.035Z,93.30
2023-03-10T21:42:50.914Z,93.30
2023-03-10T21:45:22.446Z,93.60
2023-03-10T21:47:49.002Z,93.40
2023-03-10T21:50:17.079Z,93.30
2023-03-10T21:52:43.922Z,93.30
2023-03-10T21:55:18.435Z,93.30
2023-03-10T21:57:45.049Z,93.00
2023-03-10T22:00:12.724Z,93.10
2023-03-10T22:02:39.722Z,93.10
2023-03-10T22:05:06.900Z,92.80
2023-03-10T22:07:33.601Z,92.60
2023-03-10T22:10:00.303Z,92.50
2023-03-10T22:12:26.898Z,92.50
2023-03-10T22:14:56.257Z,92.50
2023-03-10T22:17:24.538Z,91.80
2023-03-10T22:19:54.520Z,91.40
2023-03-10T22:22:22.315Z,91.50
2023-03-10T22:24:49.159Z,91.50
2023-03-10T22:27:16.408Z,91.30
2023-03-10T22:29:42.982Z,91.80
2023-03-10T22:32:09.525Z,91.90
2023-03-10T22:34:36.149Z,91.60
2023-03-10T22:37:02.725Z,91.60
2023-03-10T22:39:29.286Z,91.50
2023-03-10T22:41:55.879Z,91.40
2023-03-10T22:44:22.789Z,91.10
2023-03-10T22:46:49.474Z,90.80
2023-03-10T22:49:16.111Z,91.00
2023-03-10T22:51:42.663Z,90.90
2023-03-10T22:54:09.277Z,90.90
2023-03-10T22:56:36.006Z,91.00
2023-03-10T22:59:04.308Z,90.70
2023-03-10T23:01:30.947Z,90.80
2023-03-10T23:03:57.747Z,90.80
2023-03-10T23:06:28.515Z,90.50
2023-03-10T23:08:56.481Z,90.50
2023-03-10T23:11:23.481Z,90.70
2023-03-10T23:13:50.276Z,90.70
2023-03-10T23:16:18.003Z,90.50
2023-03-10T23:18:44.617Z,90.60
2023-03-10T23:21:11.176Z,90.90
2023-03-10T23:23:39.132Z,90.80
2023-03-10T23:26:05.967Z,90.80
2023-03-10T23:28:32.500Z,90.60
2023-03-10T23:31:00.341Z,90.50
2023-03-10T23:33:26.862Z,90.30
2023-03-10T23:35:54.112Z,90.20
2023-03-10T23:38:23.278Z,90.30
2023-03-10T23:40:50.801Z,90.40
2023-03-10T23:43:17.337Z,90.60
2023-03-10T23:45:44.375Z,90.50
2023-03-10T23:48:15.991Z,90.10
2023-03-10T23:50:44.100Z,89.70
2023-03-10T23:53:12.850Z,90.00
2023-03-10T23:55:42.333Z,90.10
2023-03-10T23:58:09.354Z,89.80
